Time;durP1;ratioP1;P1;durP2;ratioP2;P2;SDS_P1;SDS_P2;PMS_P1;PMS_P2;Temp;Humidity;BMP_temperature;BMP_pressure;BME280_temperature;BME280_humidity;BME280_pressure;Samples;Min_cycle;Max_cycle;Signal;HPM_P1;HPM_P2
2021/03/24 00:01:21;;;;;;;2.43;2.23;;;;;;;7.46;84.22;101848.59;5081731;28;20930;-80
2021/03/24 00:03:47;;;;;;;4.67;2.03;;;;;;;7.44;84.30;101845.34;5082348;28;20808;-79
2021/03/24 00:06:14;;;;;;;3.13;1.50;;;;;;;7.42;84.24;101847.47;5082711;28;20445;-80
2021/03/24 00:08:42;;;;;;;1.37;1.17;;;;;;;7.45;83.97;101841.59;5082478;28;20872;-79
2021/03/24 00:11:09;;;;;;;1.63;1.53;;;;;;;7.46;83.58;101848.59;5077895;28;20445;-77
2021/03/24 00:13:35;;;;;;;2.00;1.30;;;;;;;7.47;83.50;101850.22;5073958;28;20477;-77
2021/03/24 00:16:03;;;;;;;2.80;2.07;;;;;;;7.44;84.00;101839.97;5073313;28;20957;-77
2021/03/24 00:18:30;;;;;;;1.27;1.27;;;;;;;7.39;84.34;101854.16;5073736;28;20465;-77
2021/03/24 00:20:57;;;;;;;1.23;1.07;;;;;;;7.44;84.77;101845.34;5073827;28;20476;-77
2021/03/24 00:23:23;;;;;;;2.73;1.60;;;;;;;7.49;84.58;101845.41;5073906;28;20502;-77
2021/03/24 00:25:50;;;;;;;1.40;1.10;;;;;;;7.47;84.20;101837.56;5074401;28;20445;-79
2021/03/24 00:28:17;;;;;;;3.53;3.23;;;;;;;7.45;84.14;101841.59;5083426;28;20461;-79
2021/03/24 00:30:45;;;;;;;4.60;2.83;;;;;;;7.47;84.30;101836.75;5083789;28;20486;-79
2021/03/24 00:33:12;;;;;;;5.50;1.40;;;;;;;7.49;83.79;101842.72;5083326;28;20894;-79
2021/03/24 00:35:39;;;;;;;2.67;2.23;;;;;;;7.50;83.07;101841.66;5084454;28;20448;-79
2021/03/24 00:38:05;;;;;;;3.20;2.20;;;;;;;7.50;82.86;101844.34;5082775;28;20462;-80
2021/03/24 00:40:37;;;;;;;5.10;1.70;;;;;;;7.46;83.39;101845.91;5082784;28;20869;-78
2021/03/24 00:43:05;;;;;;;3.63;0.60;;;;;;;7.46;83.72;101840.50;5082852;28;20421;-79
2021/03/24 00:45:32;;;;;;;4.13;1.40;;;;;;;7.47;83.65;101831.34;5086323;28;20456;-80
2021/03/24 00:47:59;;;;;;;5.30;2.77;;;;;;;7.47;83.53;101834.88;5085121;28;20474;-79
2021/03/24 00:50:27;;;;;;;1.30;0.70;;;;;;;7.47;82.80;101821.38;5083259;28;20946;-80
2021/03/24 00:52:54;;;;;;;1.37;1.27;;;;;;;7.46;82.33;101824.34;5081996;28;20449;-79
2021/03/24 00:55:20;;;;;;;4.93;1.37;;;;;;;7.44;82.73;101818.41;5081549;28;20936;-79
2021/03/24 00:57:46;;;;;;;1.13;1.03;;;;;;;7.39;82.95;101821.81;5082877;28;20469;-79
2021/03/24 01:00:18;;;;;;;3.30;1.53;;;;;;;7.36;83.14;101821.53;5081914;28;20900;-79
2021/03/24 01:02:45;;;;;;;3.20;1.57;;;;;;;7.38;83.02;101822.06;5082225;28;20446;-80
2021/03/24 01:05:12;;;;;;;3.70;1.27;;;;;;;7.34;83.02;101821.75;5080635;28;20441;-79
2021/03/24 01:07:40;;;;;;;2.70;2.33;;;;;;;7.38;82.95;101813.97;5080430;28;20445;-79
2021/03/24 01:10:11;;;;;;;2.07;1.90;;;;;;;7.40;83.06;101823.47;5080271;28;20450;-79
2021/03/24 01:12:37;;;;;;;1.67;1.57;;;;;;;7.34;83.62;101811.78;5080381;28;20430;-77
2021/03/24 01:15:04;;;;;;;1.17;1.07;;;;;;;7.35;83.86;101820.72;5078987;28;20564;-79
2021/03/24 01:17:31;;;;;;;2.37;1.67;;;;;;;7.38;83.51;101812.09;5079708;28;20449;-79
2021/03/24 01:19:57;;;;;;;1.87;1.40;;;;;;;7.42;83.44;101809.72;5081868;28;20426;-79
2021/03/24 01:22:23;;;;;;;3.23;2.07;;;;;;;7.44;83.88;101813.00;5079622;28;20505;-79
2021/03/24 01:24:49;;;;;;;4.40;1.50;;;;;;;7.46;83.28;101814.38;5079769;28;20566;-79
2021/03/24 01:27:15;;;;;;;2.43;1.20;;;;;;;7.46;83.59;101816.25;5080347;28;20433;-79
2021/03/24 01:29:41;;;;;;;1.03;1.03;;;;;;;7.41;83.70;101808.91;5083722;28;20457;-79
2021/03/24 01:32:07;;;;;;;1.37;1.20;;;;;;;7.41;83.30;101811.63;5084058;28;20449;-79
2021/03/24 01:34:34;;;;;;;2.37;1.43;;;;;;;7.40;83.55;101817.25;5083922;28;20485;-79
2021/03/24 01:37:00;;;;;;;1.50;1.13;;;;;;;7.42;83.45;101818.63;5084154;28;20445;-79
2021/03/24 01:39:26;;;;;;;4.17;2.20;;;;;;;7.45;83.96;101812.75;5083741;28;20461;-79
2021/03/24 01:41:52;;;;;;;3.47;1.20;;;;;;;7.45;84.15;101811.94;5084201;28;20437;-79
2021/03/24 01:44:18;;;;;;;3.03;1.40;;;;;;;7.46;84.22;101805.47;5082925;28;20930;-79
2021/03/24 01:46:46;;;;;;;2.37;1.60;;;;;;;7.41;83.90;101806.22;5083908;28;20444;-79
2021/03/24 01:49:18;;;;;;;2.10;0.80;;;;;;;7.39;82.98;101805.63;5082958;28;20481;-79
2021/03/24 01:51:48;;;;;;;4.40;2.90;;;;;;;7.34;83.28;101806.38;5081103;28;20452;-79
2021/03/24 01:54:17;;;;;;;0.90;0.73;;;;;;;7.36;83.25;101810.75;5083815;28;20473;-79
2021/03/24 01:56:46;;;;;;;2.90;2.63;;;;;;;7.35;83.06;101807.22;5083868;28;20491;-79
2021/03/24 01:59:12;;;;;;;4.67;2.60;;;;;;;7.29;82.48;101805.50;5083170;28;20456;-79
2021/03/24 02:01:38;;;;;;;12.83;1.07;;;;;;;7.27;82.13;101802.25;5083355;28;20961;-79
2021/03/24 02:04:04;;;;;;;0.80;0.60;;;;;;;7.23;82.19;101804.63;5084205;28;20441;-79
2021/03/24 02:06:37;;;;;;;4.57;2.63;;;;;;;7.23;82.96;101801.94;5084567;28;20448;-79
2021/03/24 02:09:13;;;;;;;5.60;1.23;;;;;;;7.25;83.01;101805.19;5082334;28;20472;-80
2021/03/24 02:11:47;;;;;;;2.73;1.33;;;;;;;7.18;83.26;101804.56;5083334;28;20436;-80
2021/03/24 02:14:19;;;;;;;3.10;2.73;;;;;;;7.19;83.75;101808.88;5081666;28;20465;-79
2021/03/24 02:16:48;;;;;;;3.53;1.30;;;;;;;7.20;84.18;101796.22;5081544;28;20492;-78
2021/03/24 02:19:23;;;;;;;1.63;1.53;;;;;;;7.25;84.87;101807.88;5080330;28;20481;-78
2021/03/24 02:21:51;;;;;;;3.20;1.90;;;;;;;7.26;85.34;101806.84;5079706;28;20432;-79
2021/03/24 02:24:31;;;;;;;1.57;0.87;;;;;;;7.28;84.86;101802.00;5076092;28;20445;-77
2021/03/24 02:27:07;;;;;;;2.43;1.67;;;;;;;7.28;84.77;101798.50;5077082;28;20906;-78
2021/03/24 02:29:35;;;;;;;1.30;1.00;;;;;;;7.32;84.89;101799.63;5079984;28;20472;-78
2021/03/24 02:32:03;;;;;;;2.20;1.50;;;;;;;7.34;85.03;101800.19;5078887;28;21024;-78
2021/03/24 02:34:31;;;;;;;3.60;1.77;;;;;;;7.31;84.84;101804.22;5078551;28;20488;-77
2021/03/24 02:37:01;;;;;;;1.73;0.60;;;;;;;7.33;84.79;101807.47;5076049;28;20449;-77
2021/03/24 02:39:30;;;;;;;2.30;1.43;;;;;;;7.32;85.12;101811.22;5075849;28;20457;-78
2021/03/24 02:42:00;;;;;;;2.03;1.80;;;;;;;7.32;85.62;101810.41;5075859;28;20475;-77
2021/03/24 02:44:28;;;;;;;1.47;1.37;;;;;;;7.31;85.45;101809.59;5076259;28;20444;-77
2021/03/24 02:46:56;;;;;;;1.00;0.87;;;;;;;7.26;84.74;101806.00;5075972;28;20479;-77
2021/03/24 02:49:25;;;;;;;1.77;0.90;;;;;;;7.23;83.46;101815.41;5075479;28;20978;-77
2021/03/24 02:51:52;;;;;;;4.47;1.50;;;;;;;7.14;83.76;101818.78;5075617;28;20444;-77
2021/03/24 02:54:22;;;;;;;0.70;0.60;;;;;;;7.16;84.26;101816.66;5075404;28;20859;-75
2021/03/24 02:56:48;;;;;;;1.90;1.20;;;;;;;7.19;84.56;101808.06;5075397;28;20783;-75
2021/03/24 02:59:15;;;;;;;2.73;1.47;;;;;;;7.18;83.85;101804.56;5075349;28;20473;-75
2021/03/24 03:01:49;;;;;;;1.27;1.17;;;;;;;7.17;83.50;101802.94;5075443;28;20449;-75
2021/03/24 03:04:20;;;;;;;2.10;1.80;;;;;;;7.16;84.02;101800.47;5075234;28;20429;-74
2021/03/24 03:06:47;;;;;;;2.80;1.63;;;;;;;7.16;84.47;101797.78;5075351;28;20433;-75
2021/03/24 03:09:20;;;;;;;1.17;0.60;;;;;;;7.13;84.44;101803.66;5075242;28;20466;-74
2021/03/24 03:11:56;;;;;;;6.10;0.93;;;;;;;7.05;84.57;101821.88;5075505;28;20430;-74
2021/03/24 03:14:27;;;;;;;1.70;1.17;;;;;;;7.05;84.63;101805.72;5074828;28;20479;-77
2021/03/24 03:16:59;;;;;;;1.30;1.20;;;;;;;7.09;84.42;101808.75;5075315;28;20418;-77
2021/03/24 03:19:31;;;;;;;1.20;1.20;;;;;;;7.00;84.09;101818.31;5074744;28;20847;-74
2021/03/24 03:22:03;;;;;;;0.93;0.93;;;;;;;7.01;84.61;101809.16;5075245;28;20437;-75
2021/03/24 03:24:36;;;;;;;1.20;1.10;;;;;;;7.01;84.74;101809.16;5074642;28;20926;-75
2021/03/24 03:27:05;;;;;;;1.03;0.93;;;;;;;6.98;84.96;101818.53;5074630;28;20781;-75
2021/03/24 03:29:32;;;;;;;0.87;0.83;;;;;;;6.98;85.63;101815.03;5074807;28;20473;-75
2021/03/24 03:32:02;;;;;;;4.20;2.40;;;;;;;6.98;86.22;101805.06;5074587;28;20821;-74
2021/03/24 03:34:28;;;;;;;2.17;1.83;;;;;;;6.98;86.55;101804.25;5074777;28;20558;-75
2021/03/24 03:36:56;;;;;;;1.77;1.40;;;;;;;7.04;86.67;101803.28;5074884;28;20438;-75
2021/03/24 03:39:25;;;;;;;2.87;2.53;;;;;;;7.06;86.78;101804.66;5074452;28;20476;-75
2021/03/24 03:41:53;;;;;;;0.97;0.87;;;;;;;7.09;86.54;101806.06;5074403;28;20955;-75
2021/03/24 03:44:19;;;;;;;2.43;2.23;;;;;;;7.07;86.76;101802.78;5074367;28;20795;-75
2021/03/24 03:46:48;;;;;;;1.50;1.27;;;;;;;7.04;86.97;101809.50;5074406;28;20499;-75
2021/03/24 03:49:15;;;;;;;7.63;1.70;;;;;;;7.05;87.33;101811.13;5074413;28;20469;-75
2021/03/24 03:51:52;;;;;;;1.17;1.07;;;;;;;7.02;87.80;101808.09;5073900;28;20449;-75
2021/03/24 03:54:24;;;;;;;2.30;1.90;;;;;;;7.04;88.03;101805.97;5074355;28;20469;-75
2021/03/24 03:57:02;;;;;;;4.00;2.43;;;;;;;7.08;88.09;101796.31;5074430;28;20430;-76
2021/03/24 03:59:35;;;;;;;2.30;0.77;;;;;;;7.06;87.73;101796.56;5074567;28;20476;-75
2021/03/24 04:02:05;;;;;;;1.77;1.67;;;;;;;6.98;86.64;101798.88;5074166;28;20429;-75
2021/03/24 04:04:36;;;;;;;3.27;2.87;;;;;;;6.93;86.22;101798.81;5074211;28;20472;-75
2021/03/24 04:07:14;;;;;;;1.40;1.30;;;;;;;6.88;86.08;101798.72;5073803;28;20899;-75
2021/03/24 04:09:41;;;;;;;1.03;1.03;;;;;;;6.82;85.81;101789.75;5073932;28;20488;-75
2021/03/24 04:12:13;;;;;;;8.03;2.77;;;;;;;6.80;86.29;101797.25;5073991;28;20450;-75
2021/03/24 04:14:41;;;;;;;1.90;1.37;;;;;;;6.79;86.25;101796.44;5074080;28;20954;-75
2021/03/24 04:17:08;;;;;;;4.10;2.17;;;;;;;6.77;86.33;101787.81;5074068;28;20449;-75
2021/03/24 04:19:40;;;;;;;0.70;0.60;;;;;;;6.76;86.29;101785.34;5073559;28;21012;-75
2021/03/24 04:22:07;;;;;;;1.63;1.53;;;;;;;6.72;85.42;101776.94;5074148;28;20428;-75
2021/03/24 04:24:38;;;;;;;3.60;2.83;;;;;;;6.72;85.79;101771.53;5073955;28;20437;-75
2021/03/24 04:27:08;;;;;;;2.13;1.93;;;;;;;6.68;86.92;101783.88;5073892;28;20433;-75
2021/03/24 04:29:39;;;;;;;0.70;0.70;;;;;;;6.69;87.88;101782.03;5073918;28;20465;-75
2021/03/24 04:32:08;;;;;;;4.77;1.30;;;;;;;6.64;88.71;101777.38;5073888;28;20475;-75
2021/03/24 04:34:36;;;;;;;1.90;1.10;;;;;;;6.60;89.11;101787.00;5073258;28;20850;-75
2021/03/24 04:37:06;;;;;;;0.50;0.50;;;;;;;6.61;89.59;101777.84;5073762;28;20771;-75
2021/03/24 04:39:36;;;;;;;0.83;0.83;;;;;;;6.60;89.82;101781.59;5073890;28;20609;-74
2021/03/24 04:42:08;;;;;;;1.43;0.77;;;;;;;6.61;89.92;101782.41;5073702;28;20503;-75
2021/03/24 04:44:36;;;;;;;1.53;0.70;;;;;;;6.60;89.92;101792.38;5073942;28;20422;-75
2021/03/24 04:47:08;;;;;;;6.30;1.17;;;;;;;6.60;90.12;101789.69;5073839;28;20446;-75
2021/03/24 04:49:44;;;;;;;2.80;1.33;;;;;;;6.62;89.99;101784.84;5073879;28;20458;-75
2021/03/24 04:52:12;;;;;;;1.43;1.13;;;;;;;6.56;90.30;101785.84;5073799;28;20421;-75
2021/03/24 04:54:42;;;;;;;0.60;0.50;;;;;;;6.53;90.46;101787.13;5073796;28;20476;-75
2021/03/24 04:57:13;;;;;;;1.43;0.97;;;;;;;6.56;90.16;101793.91;5073887;28;20482;-75
2021/03/24 04:59:43;;;;;;;1.53;1.10;;;;;;;6.56;89.66;101793.91;5073441;28;21040;-75
2021/03/24 05:02:13;;;;;;;4.60;1.90;;;;;;;6.55;89.88;101794.97;5073785;28;20441;-75
2021/03/24 05:04:45;;;;;;;0.70;0.50;;;;;;;6.53;88.59;101794.41;5077705;28;20849;-76
2021/03/24 05:07:18;;;;;;;1.47;1.10;;;;;;;6.49;88.14;101801.31;5077671;28;20891;-77
2021/03/24 05:09:46;;;;;;;0.73;0.67;;;;;;;6.45;88.40;101797.50;5078097;28;20471;-77
2021/03/24 05:12:16;;;;;;;1.03;1.00;;;;;;;6.45;88.13;101795.63;5077822;28;20437;-78
2021/03/24 05:14:50;;;;;;;3.13;1.07;;;;;;;6.45;88.34;101789.41;5078018;28;20468;-78
2021/03/24 05:17:20;;;;;;;0.40;0.33;;;;;;;6.46;88.56;101796.41;5077837;28;20417;-78
2021/03/24 05:19:48;;;;;;;2.10;1.97;;;;;;;6.45;88.10;101784.84;5080321;28;20993;-81
2021/03/24 05:22:24;;;;;;;1.83;1.07;;;;;;;6.52;88.32;101796.28;5081932;28;20515;-80
2021/03/24 05:24:56;;;;;;;2.93;2.23;;;;;;;6.57;88.57;101801.75;5080241;28;20429;-80
2021/03/24 05:27:27;;;;;;;3.23;3.03;;;;;;;6.59;88.70;101793.41;5079889;28;20414;-79
2021/03/24 05:29:58;;;;;;;2.50;1.63;;;;;;;6.64;88.50;101795.38;5079718;28;20917;-80
2021/03/24 05:32:35;;;;;;;2.37;2.20;;;;;;;6.68;88.15;101793.81;5079387;28;20413;-80
2021/03/24 05:35:21;;;;;;;4.73;1.33;;;;;;;6.69;88.10;101790.91;5079138;28;20472;-80
2021/03/24 05:37:47;;;;;;;2.40;2.23;;;;;;;6.74;88.04;101785.59;5079598;28;20469;-80
2021/03/24 05:40:36;;;;;;;1.60;1.47;;;;;;;6.80;87.78;101797.25;5079019;28;20934;-80
2021/03/24 05:43:18;;;;;;;9.07;1.97;;;;;;;6.82;87.33;101798.66;5079605;28;20422;-80
2021/03/24 05:45:49;;;;;;;1.57;1.50;;;;;;;6.87;87.33;101799.78;5080063;28;20422;-80
2021/03/24 05:48:37;;;;;;;1.40;1.00;;;;;;;6.93;87.06;101801.50;5078930;28;20838;-80
2021/03/24 05:51:17;;;;;;;1.83;1.50;;;;;;;6.97;86.35;101802.63;5079318;28;20437;-80
2021/03/24 05:54:11;;;;;;;1.53;1.07;;;;;;;6.99;85.83;101805.88;5079426;28;20834;-80
2021/03/24 05:57:03;;;;;;;4.50;1.50;;;;;;;7.00;85.78;101805.66;5076023;28;20483;-80
2021/03/24 05:59:39;;;;;;;4.13;2.10;;;;;;;7.00;85.98;101802.16;5078842;28;20991;-80
2021/03/24 06:02:13;;;;;;;8.20;4.00;;;;;;;7.01;85.96;101807.28;5079188;28;20503;-80
2021/03/24 06:04:45;;;;;;;2.60;2.20;;;;;;;7.07;85.67;101808.16;5078759;28;20429;-80
2021/03/24 06:07:43;;;;;;;3.63;3.23;;;;;;;7.09;85.50;101816.81;5079348;28;20425;-80
2021/03/24 06:10:27;;;;;;;3.70;1.50;;;;;;;7.15;85.29;101821.22;5046714;28;20441;-81
2021/03/24 06:13:17;;;;;;;1.23;1.13;;;;;;;7.17;84.84;101816.41;5080491;28;20483;-80
2021/03/24 06:16:12;;;;;;;4.80;2.60;;;;;;;7.15;85.05;101821.22;5079302;28;20479;-80
2021/03/24 06:18:51;;;;;;;5.40;3.50;;;;;;;7.19;85.00;101813.47;5079477;28;20476;-80
2021/03/24 06:21:27;;;;;;;7.10;2.13;;;;;;;7.22;84.73;101816.47;5079949;28;20421;-80
2021/03/24 06:24:07;;;;;;;3.80;2.30;;;;;;;7.27;85.11;101821.94;5079968;28;20428;-80
2021/03/24 06:26:43;;;;;;;2.00;1.80;;;;;;;7.29;85.09;101822.50;5079354;28;20444;-80
2021/03/24 06:29:20;;;;;;;1.87;1.67;;;;;;;7.41;85.03;101824.28;5079303;28;20457;-80
2021/03/24 06:32:08;;;;;;;2.40;1.97;;;;;;;7.50;84.95;101833.56;5079471;28;20899;-80
2021/03/24 06:34:59;;;;;;;3.97;2.87;;;;;;;7.57;84.21;101818.03;5079080;28;20970;-80
2021/03/24 06:37:52;;;;;;;2.93;2.20;;;;;;;7.60;84.15;101825.59;5078860;28;20848;-80
2021/03/24 06:40:30;;;;;;;3.60;2.53;;;;;;;7.55;84.27;101825.53;5079291;28;20430;-80
2021/03/24 06:43:15;;;;;;;3.90;2.90;;;;;;;7.48;84.04;101835.69;5079142;28;20795;-80
2021/03/24 06:45:51;;;;;;;3.33;2.90;;;;;;;7.50;84.47;101833.56;5079225;28;20433;-81
2021/03/24 06:48:38;;;;;;;4.30;3.67;;;;;;;7.52;84.12;101826.03;5079590;28;20460;-79
2021/03/24 06:52:01;;;;;;;8.57;2.83;;;;;;;7.53;84.33;101835.78;5079317;28;20430;-80
2021/03/24 06:55:08;;;;;;;4.23;3.50;;;;;;;7.68;83.89;101832.44;5078761;28;20488;-80
2021/03/24 06:58:08;;;;;;;4.50;4.00;;;;;;;7.75;83.53;101831.19;5082571;28;20528;-79
2021/03/24 07:08:15;;;;;;;4.93;2.70;;;;;;;7.73;83.77;101832.50;4997102;28;20480;-79
2021/03/24 07:10:49;;;;;;;3.00;1.80;;;;;;;7.81;83.75;101835.56;5007520;28;20480;-80
2021/03/24 07:13:54;;;;;;;9.00;4.30;;;;;;;7.89;83.10;101841.59;5079551;28;20429;-80
2021/03/24 07:16:35;;;;;;;5.60;2.33;;;;;;;7.95;82.85;101857.59;5079449;28;20432;-79
2021/03/24 07:19:20;;;;;;;10.23;3.37;;;;;;;7.93;82.23;101850.84;5078693;28;20993;-79
2021/03/24 07:22:11;;;;;;;7.00;4.13;;;;;;;7.86;82.89;101853.69;5079380;28;20475;-80
2021/03/24 07:24:53;;;;;;;8.40;3.40;;;;;;;7.91;82.94;101859.16;5040468;28;20446;-80
2021/03/24 07:27:36;;;;;;;3.40;3.10;;;;;;;7.95;82.90;101862.16;5078395;28;20422;-80
2021/03/24 07:30:14;;;;;;;4.93;3.50;;;;;;;7.98;82.93;101854.41;5078709;28;20422;-80
2021/03/24 07:32:48;;;;;;;8.37;4.43;;;;;;;8.05;82.80;101864.97;5078887;28;20425;-80
2021/03/24 07:35:39;;;;;;;14.97;5.83;;;;;;;8.11;82.27;101869.38;5078887;28;20484;-79
2021/03/24 07:38:34;;;;;;;9.10;6.60;;;;;;;8.21;82.09;101866.78;5079143;28;20462;-79
2021/03/24 07:41:29;;;;;;;9.33;4.00;;;;;;;8.27;81.58;101870.34;5078675;28;20441;-80
2021/03/24 07:44:02;;;;;;;9.83;4.47;;;;;;;8.29;81.08;101868.22;5078915;28;20426;-80
2021/03/24 07:46:52;;;;;;;8.07;3.40;;;;;;;8.21;81.78;101866.78;5082639;28;20793;-80
2021/03/24 07:49:43;;;;;;;5.60;3.63;;;;;;;8.16;81.96;101872.13;5079951;28;20469;-79
2021/03/24 07:52:36;;;;;;;12.50;6.63;;;;;;;8.30;81.06;101864.47;5078900;28;20421;-79
2021/03/24 07:55:20;;;;;;;8.63;2.57;;;;;;;8.42;80.70;101869.75;5078659;28;20480;-80
2021/03/24 07:57:58;;;;;;;19.03;5.50;;;;;;;8.51;80.33;101873.63;5077834;28;20446;-79
2021/03/24 08:00:32;;;;;;;11.57;3.17;;;;;;;8.58;79.89;101882.31;5078438;28;20429;-79
2021/03/24 08:03:07;;;;;;;16.87;5.17;;;;;;;8.62;78.97;101878.03;5078186;28;20520;-80
2021/03/24 08:06:14;;;;;;;9.73;5.67;;;;;;;8.59;78.58;101886.66;5077672;28;20421;-80
2021/03/24 08:08:57;;;;;;;12.77;5.43;;;;;;;8.64;78.72;101884.00;4996051;28;20947;-80
2021/03/24 08:11:32;;;;;;;10.87;6.07;;;;;;;8.65;79.23;101885.63;4992922;28;20453;-77
2021/03/24 08:14:17;;;;;;;4.23;2.80;;;;;;;8.73;78.66;101889.75;5047006;28;20493;-77
2021/03/24 08:16:56;;;;;;;12.20;5.27;;;;;;;8.90;78.09;101895.84;5075490;28;20433;-80
2021/03/24 08:19:57;;;;;;;9.40;5.17;;;;;;;8.91;77.54;101886.69;5076869;28;20491;-80
2021/03/24 08:23:02;;;;;;;9.70;5.03;;;;;;;8.92;77.25;101884.78;5078460;28;20429;-80
2021/03/24 08:25:40;;;;;;;9.20;5.00;;;;;;;8.88;77.03;101886.38;5066308;28;20468;-80
2021/03/24 08:28:17;;;;;;;8.70;4.97;;;;;;;9.04;76.38;101891.66;5078272;28;20461;-79
2021/03/24 08:30:54;;;;;;;23.23;5.87;;;;;;;9.08;75.89;101891.94;5079000;28;20426;-79
2021/03/24 08:33:55;;;;;;;6.80;4.50;;;;;;;9.25;75.97;101889.91;5077489;28;20822;-79
2021/03/24 08:36:51;;;;;;;11.93;5.97;;;;;;;9.49;75.38;101889.53;5077405;28;20527;-79
2021/03/24 08:39:46;;;;;;;12.97;6.23;;;;;;;9.58;74.72;101886.06;5077782;28;20465;-79
2021/03/24 08:42:44;;;;;;;7.50;5.57;;;;;;;9.79;74.18;101881.56;5078060;28;20434;-79
2021/03/24 08:45:19;;;;;;;13.77;6.27;;;;;;;9.96;72.72;101881.38;5074755;28;20453;-79
2021/03/24 08:47:49;;;;;;;6.97;4.33;;;;;;;10.09;72.47;101885.47;5077968;28;20472;-79
2021/03/24 08:50:20;;;;;;;8.37;4.43;;;;;;;10.15;71.74;101891.72;5077282;28;20452;-80
2021/03/24 08:52:57;;;;;;;10.67;6.30;;;;;;;10.21;70.92;101880.63;5077353;28;20446;-79
2021/03/24 08:55:36;;;;;;;10.40;4.03;;;;;;;10.11;69.59;101878.72;5077946;28;20484;-80
2021/03/24 08:58:18;;;;;;;6.47;2.40;;;;;;;10.06;69.97;101880.59;5078006;28;20497;-79
2021/03/24 09:00:58;;;;;;;10.83;7.87;;;;;;;10.13;70.18;101883.84;5075470;28;20453;-79
2021/03/24 09:04:04;;;;;;;7.10;3.93;;;;;;;10.04;69.99;101880.84;5077694;28;20429;-80
2021/03/24 09:06:40;;;;;;;13.20;6.00;;;;;;;9.95;70.25;101874.31;5050258;28;20437;-79
2021/03/24 09:09:20;;;;;;;4.53;3.83;;;;;;;10.08;70.75;101881.94;5078058;28;20461;-80
2021/03/24 09:11:58;;;;;;;9.30;4.93;;;;;;;10.16;70.05;101877.09;5077672;28;20811;-79
2021/03/24 09:14:32;;;;;;;15.67;7.40;;;;;;;10.16;70.15;101891.44;5077802;28;20470;-79
2021/03/24 09:17:24;;;;;;;16.20;6.77;;;;;;;10.14;70.38;101888.22;5077567;28;20430;-79
2021/03/24 09:20:24;;;;;;;10.27;5.90;;;;;;;10.14;69.93;101880.09;5078408;28;20903;-80
2021/03/24 09:23:04;;;;;;;10.37;6.73;;;;;;;10.22;70.46;101884.16;5075960;28;20453;-79
2021/03/24 09:25:42;;;;;;;6.73;2.30;;;;;;;10.31;70.35;101879.88;5078591;28;20421;-78
2021/03/24 09:28:28;;;;;;;9.13;5.63;;;;;;;10.43;70.32;101882.34;5078047;28;20457;-79
2021/03/24 09:31:17;;;;;;;9.23;4.53;;;;;;;10.40;68.91;101885.59;5077612;28;20429;-79
2021/03/24 09:33:47;;;;;;;11.03;3.70;;;;;;;10.15;70.06;101878.19;5077692;28;20451;-79
2021/03/24 09:36:36;;;;;;;18.27;5.97;;;;;;;10.29;70.77;101880.16;5077756;28;20859;-80
2021/03/24 09:39:16;;;;;;;9.57;6.30;;;;;;;10.39;70.35;101871.22;5065439;28;20994;-79
2021/03/24 09:41:55;;;;;;;14.97;8.20;;;;;;;10.47;70.15;101869.91;5077639;28;20425;-79
2021/03/24 09:44:30;;;;;;;22.47;6.33;;;;;;;10.63;70.08;101871.56;5078327;28;20914;-80
2021/03/24 09:46:56;;;;;;;15.13;7.50;;;;;;;10.70;69.03;101858.53;5078897;28;20432;-79
2021/03/24 09:49:28;;;;;;;10.93;7.37;;;;;;;10.64;68.76;101864.25;5080520;28;20476;-80
2021/03/24 09:52:23;;;;;;;10.77;5.33;;;;;;;10.71;68.59;101857.44;5082561;28;20931;-79
2021/03/24 09:55:15;;;;;;;18.03;9.13;;;;;;;10.68;68.64;101863.44;5079607;28;20480;-79
2021/03/24 09:58:00;;;;;;;5.90;4.20;;;;;;;10.76;68.61;101865.59;5063052;28;20461;-79
2021/03/24 10:00:29;;;;;;;8.70;5.13;;;;;;;10.69;68.56;101850.69;5082889;28;20430;-79
2021/03/24 10:03:02;;;;;;;20.27;8.53;;;;;;;10.77;67.56;101850.97;5083497;28;20464;-79
2021/03/24 10:05:43;;;;;;;12.60;6.63;;;;;;;10.84;67.58;101854.19;5083459;28;20447;-79
2021/03/24 10:08:17;;;;;;;4.47;3.00;;;;;;;10.84;68.13;101840.66;5082597;28;20457;-79
2021/03/24 10:10:44;;;;;;;10.27;5.40;;;;;;;10.97;67.46;101846.59;5083183;28;20429;-79
2021/03/24 10:13:23;;;;;;;10.70;7.40;;;;;;;10.82;66.97;101840.13;5081803;28;20455;-80
2021/03/24 10:15:53;;;;;;;15.67;7.53;;;;;;;10.81;67.37;101845.81;5081736;28;20518;-80
2021/03/24 10:18:24;;;;;;;4.50;3.23;;;;;;;10.96;67.43;101845.00;5081558;28;20469;-80
2021/03/24 10:20:58;;;;;;;6.70;5.70;;;;;;;11.08;67.64;101837.38;5082314;28;20421;-80
2021/03/24 10:23:29;;;;;;;13.87;7.00;;;;;;;11.16;65.63;101842.25;5082826;28;20440;-80
2021/03/24 10:26:08;;;;;;;12.20;6.83;;;;;;;11.21;66.38;101842.25;5083463;28;20426;-80
2021/03/24 10:28:40;;;;;;;24.90;7.73;;;;;;;11.26;66.45;101833.28;5082965;28;20457;-80
2021/03/24 10:31:13;;;;;;;10.53;5.80;;;;;;;11.28;64.90;101834.63;5081740;28;20781;-80
2021/03/24 10:33:44;;;;;;;13.53;6.83;;;;;;;11.29;65.02;101833.56;5083979;28;20437;-81
2021/03/24 10:36:19;;;;;;;18.13;5.30;;;;;;;11.30;65.03;101837.88;5082730;28;20436;-80
2021/03/24 10:38:50;;;;;;;10.90;6.63;;;;;;;11.19;64.76;101822.72;5080693;28;20469;-79
2021/03/24 10:41:20;;;;;;;13.53;5.90;;;;;;;11.21;65.17;101831.41;5080863;28;20495;-80
2021/03/24 10:43:54;;;;;;;9.50;4.10;;;;;;;11.44;65.83;101831.88;5081241;28;20428;-80
2021/03/24 10:46:26;;;;;;;19.60;7.20;;;;;;;11.31;65.46;101815.09;5081245;28;20422;-80
2021/03/24 10:48:58;;;;;;;7.90;4.67;;;;;;;11.60;64.90;101825.34;5079827;28;20453;-79
2021/03/24 10:51:38;;;;;;;16.30;5.23;;;;;;;11.73;62.48;101821.19;5080043;28;20432;-80
2021/03/24 10:54:13;;;;;;;16.13;5.10;;;;;;;11.77;62.40;101812.19;5080327;28;20461;-79
2021/03/24 10:56:49;;;;;;;5.77;4.20;;;;;;;11.79;62.88;101820.91;5081955;28;20429;-80
2021/03/24 10:59:26;;;;;;;12.57;7.30;;;;;;;12.07;62.61;101818.59;5080287;28;20824;-80
2021/03/24 11:01:55;;;;;;;10.03;5.67;;;;;;;12.33;60.74;101817.34;5079753;28;20435;-80
2021/03/24 11:04:39;;;;;;;9.83;4.57;;;;;;;12.36;59.93;101819.50;5080012;28;20444;-80
2021/03/24 11:07:10;;;;;;;8.30;4.50;;;;;;;12.38;59.87;101814.59;5078508;28;20797;-80
2021/03/24 11:09:43;;;;;;;7.20;5.63;;;;;;;12.28;60.05;101805.72;5079944;28;21046;-80
2021/03/24 11:12:13;;;;;;;9.33;5.40;;;;;;;12.18;60.33;101811.22;5080117;28;20795;-80
2021/03/24 11:14:43;;;;;;;11.33;4.70;;;;;;;12.09;60.06;101803.66;5079816;28;21067;-80
2021/03/24 11:17:11;;;;;;;17.10;6.57;;;;;;;12.01;59.98;101800.72;5080133;28;20449;-79
2021/03/24 11:19:43;;;;;;;15.00;4.60;;;;;;;11.90;60.46;101805.38;5083216;22;20497;-69
2021/03/24 11:22:28;;;;;;;12.30;5.43;;;;;;;11.67;61.45;101800.59;5054475;28;20472;-69
2021/03/24 11:24:57;;;;;;;5.73;3.67;;;;;;;11.72;62.35;101809.50;5054177;28;20981;-69
2021/03/24 11:27:35;;;;;;;6.77;4.23;;;;;;;11.93;62.50;101799.41;5054310;28;20442;-69
2021/03/24 11:30:17;;;;;;;6.50;4.43;;;;;;;12.09;59.39;101802.84;5054477;28;20427;-68
2021/03/24 11:32:52;;;;;;;11.53;4.57;;;;;;;12.41;58.67;101801.56;5054801;28;20493;-69
2021/03/24 11:35:26;;;;;;;6.57;3.83;;;;;;;12.79;58.13;101800.69;5053855;28;20474;-68
2021/03/24 11:37:59;;;;;;;5.20;3.03;;;;;;;13.27;56.05;101805.41;5053856;28;20427;-68
2021/03/24 11:40:30;;;;;;;12.70;6.30;;;;;;;13.31;55.27;101804.53;5054264;28;20414;-69
2021/03/24 11:43:01;;;;;;;7.20;4.50;;;;;;;13.30;55.85;101796.66;5054353;28;20521;-69
2021/03/24 11:45:30;;;;;;;11.23;4.60;;;;;;;13.23;55.94;101804.34;5054320;28;20488;-69
2021/03/24 11:48:13;;;;;;;14.33;8.37;;;;;;;13.06;55.48;101800.16;5054177;28;20430;-69
2021/03/24 11:50:50;;;;;;;5.20;3.67;;;;;;;13.51;54.46;101791.81;5055661;28;20433;-69
2021/03/24 11:53:27;;;;;;;7.53;4.03;;;;;;;14.61;53.68;101787.78;5053817;28;20983;-69
2021/03/24 11:55:58;;;;;;;13.80;4.07;;;;;;;15.65;50.46;101774.63;5054074;28;20466;-69
2021/03/24 11:58:35;;;;;;;6.90;3.43;;;;;;;15.95;49.92;101783.28;5053681;28;20916;-69
2021/03/24 12:01:11;;;;;;;8.10;3.80;;;;;;;16.40;48.37;101779.47;5053210;28;20973;-70
2021/03/24 12:04:00;;;;;;;10.60;4.40;;;;;;;16.96;47.42;101773.72;5053847;28;20519;-69
2021/03/24 12:06:37;;;;;;;14.60;6.10;;;;;;;16.84;46.68;101777.84;5053863;28;20434;-70
2021/03/24 12:09:10;;;;;;;10.10;5.57;;;;;;;16.28;47.19;101771.00;5053830;28;20796;-69
2021/03/24 12:11:38;;;;;;;10.03;5.50;;;;;;;15.96;47.98;101763.03;5053098;28;20426;-69
2021/03/24 12:14:13;;;;;;;9.07;4.60;;;;;;;15.90;47.78;101754.16;5052919;28;20970;-69